Time;durP1;ratioP1;P1;durP2;ratioP2;P2;SDS_P1;SDS_P2;PMS_P1;PMS_P2;Temp;Humidity;BMP_temperature;BMP_pressure;BME280_temperature;BME280_humidity;BME280_pressure;Samples;Min_cycle;Max_cycle;Signal;HPM_P1;HPM_P2
2023/05/09 00:01:30;;;;;;;13.03;9.83;;;;;;;20.66;55.86;101713.75;5057395;28;20036;-70
2023/05/09 00:03:57;;;;;;;15.25;10.10;;;;;;;20.63;55.88;101693.66;5049023;28;20263;-70
2023/05/09 00:06:22;;;;;;;12.93;10.90;;;;;;;20.64;55.64;101699.81;5042285;28;20024;-69
2023/05/09 00:08:47;;;;;;;13.40;10.83;;;;;;;20.61;55.70;101692.91;5060678;28;20530;-69
2023/05/09 00:11:12;;;;;;;14.98;10.82;;;;;;;20.64;55.60;101699.81;5047725;28;20262;-68
2023/05/09 00:13:38;;;;;;;15.00;11.23;;;;;;;20.62;56.03;101702.53;5041041;28;20049;-67
2023/05/09 00:16:04;;;;;;;12.82;10.63;;;;;;;20.63;55.78;101696.28;5040871;28;20266;-68
2023/05/09 00:18:30;;;;;;;13.77;10.10;;;;;;;20.61;55.76;101692.91;5041137;28;20563;-69
2023/05/09 00:20:56;;;;;;;13.18;10.13;;;;;;;20.61;55.46;101690.25;5041171;28;20040;-68
2023/05/09 00:23:21;;;;;;;12.30;9.75;;;;;;;20.61;55.67;101694.72;5052912;28;20039;-68
2023/05/09 00:25:47;;;;;;;14.30;10.70;;;;;;;20.60;55.58;101688.59;5049425;28;20033;-69
2023/05/09 00:28:12;;;;;;;12.90;9.70;;;;;;;20.61;55.65;101687.59;5056468;28;20123;-69
2023/05/09 00:30:37;;;;;;;13.98;10.48;;;;;;;20.59;55.60;101689.53;5060776;28;20617;-68
2023/05/09 00:33:03;;;;;;;13.20;9.63;;;;;;;20.61;55.63;101684.97;5053692;28;20892;-69
2023/05/09 00:35:28;;;;;;;11.13;9.77;;;;;;;20.60;55.56;101678.00;5053003;28;20327;-68
2023/05/09 00:37:53;;;;;;;14.60;8.95;;;;;;;20.60;55.18;101672.69;5051931;28;20029;-69
2023/05/09 00:40:19;;;;;;;13.30;9.48;;;;;;;20.60;55.59;101678.00;5056607;28;20033;-68
2023/05/09 00:42:44;;;;;;;12.15;9.38;;;;;;;20.60;55.47;101680.63;5045989;28;20039;-69
2023/05/09 00:45:10;;;;;;;13.50;9.68;;;;;;;20.52;55.45;101666.31;5058405;28;20043;-69
2023/05/09 00:47:36;;;;;;;12.65;9.05;;;;;;;20.56;55.51;101665.13;5048091;28;20029;-68
2023/05/09 00:50:02;;;;;;;12.52;9.10;;;;;;;20.57;55.04;101667.63;5047954;28;20032;-68
2023/05/09 00:52:28;;;;;;;11.43;9.30;;;;;;;20.58;55.40;101665.81;5043005;28;20032;-68
2023/05/09 00:54:54;;;;;;;11.40;8.52;;;;;;;20.56;55.64;101658.00;5047279;28;20039;-70
2023/05/09 00:57:20;;;;;;;14.52;9.05;;;;;;;20.57;55.47;101659.69;5046682;28;20119;-69
2023/05/09 00:59:46;;;;;;;11.88;8.50;;;;;;;20.57;55.38;101650.88;5048587;28;20041;-69
2023/05/09 01:02:11;;;;;;;10.57;8.20;;;;;;;20.56;55.58;101650.06;5049906;28;20033;-69
2023/05/09 01:04:37;;;;;;;9.13;6.97;;;;;;;20.57;55.61;101646.44;5047506;28;20399;-68
2023/05/09 01:07:24;;;;;;;10.75;8.20;;;;;;;20.57;55.37;101646.44;5054110;28;20033;-67
2023/05/09 01:10:20;;;;;;;11.20;8.75;;;;;;;20.55;55.22;101636.94;5052625;28;20547;-68
2023/05/09 01:12:54;;;;;;;10.95;7.93;;;;;;;20.58;55.19;101639.34;5049238;28;20048;-69
2023/05/09 01:15:32;;;;;;;10.13;7.80;;;;;;;20.55;55.22;101632.47;5048766;28;20033;-68
2023/05/09 01:18:07;;;;;;;11.20;8.15;;;;;;;20.54;55.26;101627.31;5049723;28;20036;-70
2023/05/09 01:20:50;;;;;;;9.80;7.65;;;;;;;20.55;55.30;101621.88;5053873;28;20029;-68
2023/05/09 01:23:35;;;;;;;10.25;8.02;;;;;;;20.53;55.17;101618.53;5054038;28;20723;-68
2023/05/09 01:26:18;;;;;;;12.05;8.07;;;;;;;20.55;55.30;101613.94;5049768;28;20056;-69
2023/05/09 01:28:43;;;;;;;10.15;7.25;;;;;;;20.57;55.20;101608.53;5048990;28;20083;-69
2023/05/09 01:31:09;;;;;;;11.37;7.97;;;;;;;20.55;55.15;101607.81;5045108;28;20956;-69
2023/05/09 01:33:39;;;;;;;11.48;7.20;;;;;;;20.52;55.28;101602.75;5056245;28;20536;-68
2023/05/09 01:36:13;;;;;;;11.18;7.22;;;;;;;20.52;55.18;101600.09;5050013;28;20032;-69
2023/05/09 01:38:40;;;;;;;;;;;;;;;20.58;54.87;101602.28;5052818;28;20098;-69
2023/05/09 01:41:09;;;;;;;9.40;6.80;;;;;;;20.57;54.95;101596.13;5061203;28;20786;-69
2023/05/09 01:43:36;;;;;;;10.23;7.05;;;;;;;20.56;55.01;101593.63;5058164;28;20063;-68
2023/05/09 01:46:04;;;;;;;10.88;7.10;;;;;;;20.55;55.04;101592.75;5058641;28;20038;-68
2023/05/09 01:48:30;;;;;;;11.45;7.78;;;;;;;20.54;54.98;101583.16;5051282;28;20068;-69
2023/05/09 01:50:58;;;;;;;9.43;6.95;;;;;;;20.52;54.99;101585.09;5060836;28;20119;-69
2023/05/09 01:53:26;;;;;;;8.95;6.95;;;;;;;20.51;55.06;101578.09;5048480;28;20036;-69
2023/05/09 01:55:51;;;;;;;8.95;6.38;;;;;;;20.50;55.00;101576.41;5056405;28;20045;-69
2023/05/09 01:58:19;;;;;;;9.60;7.10;;;;;;;20.50;55.05;101579.03;5045714;28;20055;-69
2023/05/09 02:00:46;;;;;;;9.70;7.00;;;;;;;20.52;54.93;101578.91;5045795;28;20452;-69
2023/05/09 02:03:13;;;;;;;8.88;6.93;;;;;;;20.51;54.93;101572.78;5052093;28;20079;-69
2023/05/09 02:05:40;;;;;;;11.70;7.30;;;;;;;20.49;54.95;101569.44;5043196;28;20032;-67
2023/05/09 02:08:07;;;;;;;9.73;6.53;;;;;;;20.52;55.05;101573.63;5063438;28;20040;-68
2023/05/09 02:10:34;;;;;;;8.80;6.10;;;;;;;20.50;54.91;101568.44;5063314;28;20039;-68
2023/05/09 02:12:59;;;;;;;8.52;6.90;;;;;;;20.49;54.76;101564.16;5053393;28;20088;-68
2023/05/09 02:15:25;;;;;;;8.18;6.05;;;;;;;20.48;54.87;101557.97;5048098;28;20503;-68
2023/05/09 02:17:50;;;;;;;10.38;7.32;;;;;;;20.50;54.94;101570.28;5055433;28;20540;-68
2023/05/09 02:20:16;;;;;;;9.38;6.75;;;;;;;20.49;54.69;101580.03;5061001;28;20458;-68
2023/05/09 02:22:42;;;;;;;9.05;6.72;;;;;;;20.46;54.76;101574.97;5060413;28;20029;-68
2023/05/09 02:25:09;;;;;;;9.90;6.38;;;;;;;20.48;54.93;101579.16;5037097;28;20051;-68
2023/05/09 02:27:38;;;;;;;9.88;6.63;;;;;;;20.47;54.87;101577.50;5047398;28;20097;-68
2023/05/09 02:30:07;;;;;;;8.27;6.30;;;;;;;20.46;54.92;101569.69;5058776;28;20062;-69
2023/05/09 02:32:34;;;;;;;10.95;6.45;;;;;;;20.49;54.59;101569.44;5061275;28;20076;-68
2023/05/09 02:35:00;;;;;;;11.02;7.22;;;;;;;20.49;54.87;101577.38;5048370;28;20033;-69
2023/05/09 02:37:26;;;;;;;8.70;6.82;;;;;;;20.46;54.81;101573.16;5042693;28;20071;-68
2023/05/09 02:39:52;;;;;;;10.02;6.25;;;;;;;20.47;54.73;101572.22;5051016;28;20472;-67
2023/05/09 02:42:24;;;;;;;8.63;6.90;;;;;;;20.45;54.87;101573.28;5062300;28;20036;-69
2023/05/09 02:44:50;;;;;;;9.43;6.43;;;;;;;20.46;54.83;101567.88;5025103;28;20025;-69
2023/05/09 02:47:15;;;;;;;8.95;6.72;;;;;;;20.46;54.67;101553.78;5061290;28;20036;-68
2023/05/09 02:49:40;;;;;;;9.38;5.93;;;;;;;20.44;54.41;101553.91;5045304;28;20094;-68
2023/05/09 02:52:05;;;;;;;8.63;6.25;;;;;;;20.47;54.67;101555.47;5052003;28;20047;-69
2023/05/09 02:54:31;;;;;;;8.60;6.47;;;;;;;20.43;54.39;101540.81;5057216;28;20028;-69
2023/05/09 02:56:56;;;;;;;8.93;6.28;;;;;;;20.44;54.62;101543.31;5055576;28;20282;-68
2023/05/09 02:59:21;;;;;;;9.00;6.67;;;;;;;20.45;54.68;101542.34;5053425;28;20039;-69
2023/05/09 03:01:46;;;;;;;9.77;6.47;;;;;;;20.44;54.62;101540.69;5055989;28;20737;-68
2023/05/09 03:04:12;;;;;;;11.43;6.43;;;;;;;20.46;54.71;101536.09;5042262;28;20055;-68
2023/05/09 03:06:37;;;;;;;10.18;6.50;;;;;;;20.46;54.56;101538.75;5041557;28;20273;-68
2023/05/09 03:09:03;;;;;;;8.70;6.22;;;;;;;20.46;54.84;101527.31;5042282;28;20383;-68
2023/05/09 03:11:29;;;;;;;8.73;6.72;;;;;;;20.44;54.61;101521.28;5041832;28;20040;-68
2023/05/09 03:13:55;;;;;;;9.05;6.72;;;;;;;20.43;54.47;101515.16;5049727;28;20052;-68
2023/05/09 03:16:20;;;;;;;8.48;6.38;;;;;;;20.43;54.56;101520.44;5061680;28;20094;-69
2023/05/09 03:18:45;;;;;;;9.70;6.60;;;;;;;20.45;54.56;101515.03;5057576;28;20032;-69
2023/05/09 03:21:11;;;;;;;8.70;6.85;;;;;;;20.44;54.74;101516.00;5056198;28;20293;-70
2023/05/09 03:23:37;;;;;;;8.65;6.47;;;;;;;20.44;54.38;101518.63;5044583;28;20052;-68
2023/05/09 03:26:03;;;;;;;8.68;5.80;;;;;;;20.44;54.54;101514.22;5058903;28;20112;-69
2023/05/09 03:28:28;;;;;;;8.63;6.00;;;;;;;20.44;54.58;101513.34;5054390;28;20111;-69
2023/05/09 03:30:53;;;;;;;8.77;6.13;;;;;;;20.42;54.39;101515.28;5061640;28;20276;-69
2023/05/09 03:33:18;;;;;;;9.85;6.32;;;;;;;20.44;54.52;101516.00;5061586;28;20652;-69
2023/05/09 03:35:44;;;;;;;8.10;6.25;;;;;;;20.42;54.66;101513.47;5051915;28;20039;-69
2023/05/09 03:38:09;;;;;;;8.30;6.15;;;;;;;20.43;54.42;101512.50;5049571;28;20036;-69
2023/05/09 03:40:34;;;;;;;9.35;6.63;;;;;;;20.42;54.24;101513.47;5041392;28;20033;-68
2023/05/09 03:42:59;;;;;;;9.00;6.17;;;;;;;20.42;54.48;101507.34;5045312;28;20124;-68
2023/05/09 03:45:25;;;;;;;8.50;5.82;;;;;;;20.44;54.09;101505.41;5053712;28;20264;-69
2023/05/09 03:47:50;;;;;;;8.82;6.10;;;;;;;20.42;54.46;101502.03;5033766;28;20028;-68
2023/05/09 03:50:15;;;;;;;8.33;6.37;;;;;;;20.43;54.52;101501.09;5061005;28;20040;-69
2023/05/09 03:52:41;;;;;;;8.73;6.43;;;;;;;20.44;54.38;101505.41;5046216;28;21358;-68
2023/05/09 03:55:06;;;;;;;8.35;6.35;;;;;;;20.43;54.36;101498.44;5055167;28;20120;-68
2023/05/09 03:57:34;;;;;;;8.30;5.97;;;;;;;20.41;54.44;101487.97;5052626;28;20478;-69
2023/05/09 03:59:59;;;;;;;9.02;6.15;;;;;;;20.39;54.39;101486.41;5060650;28;20107;-69
2023/05/09 04:02:24;;;;;;;8.32;6.28;;;;;;;20.40;54.27;101490.75;5043592;28;20031;-68
2023/05/09 04:04:51;;;;;;;7.63;5.93;;;;;;;20.40;54.43;101478.34;5046196;28;20032;-68
2023/05/09 04:07:17;;;;;;;8.32;5.95;;;;;;;20.42;54.44;101481.69;5058842;28;20068;-69
2023/05/09 04:09:42;;;;;;;9.57;6.13;;;;;;;20.42;54.67;101480.88;5053748;28;20112;-70
2023/05/09 04:12:08;;;;;;;7.47;5.90;;;;;;;20.40;54.45;101472.22;5047503;28;20090;-68
2023/05/09 04:14:33;;;;;;;8.48;6.00;;;;;;;20.41;54.38;101472.09;5056875;28;20048;-69
2023/05/09 04:16:58;;;;;;;8.40;5.82;;;;;;;20.37;54.21;101456.59;5050052;28;20311;-68
2023/05/09 04:19:23;;;;;;;9.25;6.20;;;;;;;20.41;54.21;101468.59;5048466;28;20535;-68
2023/05/09 04:21:49;;;;;;;8.20;5.70;;;;;;;20.39;54.39;101463.41;5052698;28;20151;-69
2023/05/09 04:24:14;;;;;;;8.63;6.20;;;;;;;20.40;54.18;101469.56;5060644;28;20040;-68
2023/05/09 04:26:39;;;;;;;10.13;6.15;;;;;;;20.39;54.14;101465.22;5054815;28;20037;-68
2023/05/09 04:29:05;;;;;;;10.05;6.35;;;;;;;20.39;54.29;101468.72;5047680;28;20255;-68
2023/05/09 04:31:30;;;;;;;8.63;6.00;;;;;;;20.40;54.23;101466.94;5056491;28;20036;-68
2023/05/09 04:33:57;;;;;;;7.55;5.47;;;;;;;20.36;54.25;101457.53;5060495;28;20054;-67
2023/05/09 04:36:22;;;;;;;8.65;6.00;;;;;;;20.40;54.50;101464.28;5055108;28;20339;-68
2023/05/09 04:38:48;;;;;;;7.63;5.28;;;;;;;20.37;54.32;101457.41;5057079;28;20475;-68
2023/05/09 04:41:13;;;;;;;7.47;5.50;;;;;;;20.39;54.24;101458.13;5047706;28;20032;-68
2023/05/09 04:43:38;;;;;;;7.90;5.95;;;;;;;20.38;54.19;101460.91;5048821;28;20036;-68
2023/05/09 04:46:03;;;;;;;7.47;5.65;;;;;;;20.39;54.46;101458.13;5050998;28;20231;-68
2023/05/09 04:48:29;;;;;;;8.45;5.13;;;;;;;20.38;54.10;101455.63;5046901;28;20039;-69
2023/05/09 04:50:54;;;;;;;7.63;5.07;;;;;;;20.34;54.41;101444.44;5049753;28;20025;-68
2023/05/09 04:53:19;;;;;;;7.00;5.07;;;;;;;20.33;53.98;101439.25;5058474;28;20040;-69
2023/05/09 04:55:44;;;;;;;7.53;5.45;;;;;;;20.39;54.30;101450.19;5062050;28;20790;-69
2023/05/09 04:58:10;;;;;;;7.20;5.38;;;;;;;20.34;54.28;101436.47;5052508;28;20459;-69
2023/05/09 05:00:35;;;;;;;6.95;4.95;;;;;;;20.36;54.25;101433.72;5062244;28;20025;-70
2023/05/09 05:03:00;;;;;;;7.85;5.88;;;;;;;20.37;54.27;101436.22;5050141;28;20036;-69
2023/05/09 05:05:26;;;;;;;9.70;4.80;;;;;;;20.37;54.19;101430.09;5051514;28;20531;-69
2023/05/09 05:07:52;;;;;;;11.73;5.40;;;;;;;20.36;54.33;101421.34;5054865;28;20266;-69
2023/05/09 05:10:18;;;;;;;7.22;4.93;;;;;;;20.37;54.28;101416.88;5044405;28;20051;-69
2023/05/09 05:12:44;;;;;;;7.28;5.43;;;;;;;20.37;54.16;101416.88;5049127;28;20810;-69
2023/05/09 05:15:10;;;;;;;7.55;5.25;;;;;;;20.34;54.13;101402.06;5059455;28;20032;-69
2023/05/09 05:17:36;;;;;;;7.07;4.72;;;;;;;20.35;54.49;101400.28;5029263;28;20126;-69
2023/05/09 05:20:05;;;;;;;7.00;4.90;;;;;;;20.35;54.28;101401.13;5044178;28;20028;-69
2023/05/09 05:22:30;;;;;;;6.95;4.65;;;;;;;20.36;54.33;101400.16;5053854;28;20119;-68
2023/05/09 05:24:55;;;;;;;7.18;4.90;;;;;;;20.34;54.28;101395.94;5053175;28;20194;-68
2023/05/09 05:27:21;;;;;;;6.18;4.25;;;;;;;20.34;54.04;101388.84;5053734;28;20035;-69
2023/05/09 05:29:46;;;;;;;6.88;4.78;;;;;;;20.34;54.20;101390.66;5063527;28;20028;-68
2023/05/09 05:32:11;;;;;;;5.97;4.67;;;;;;;20.33;54.36;101386.31;5051118;28;20032;-70
2023/05/09 05:34:38;;;;;;;6.45;4.88;;;;;;;20.29;54.21;101380.44;5063473;28;21271;-68
2023/05/09 05:37:03;;;;;;;6.88;4.63;;;;;;;20.29;54.39;101383.91;5048363;28;20039;-69
2023/05/09 05:39:29;;;;;;;6.72;4.57;;;;;;;20.28;54.40;101390.19;5055126;28;20955;-69
2023/05/09 05:41:54;;;;;;;6.67;4.70;;;;;;;20.27;54.52;101388.50;5043691;28;20384;-69
2023/05/09 05:44:19;;;;;;;6.70;4.65;;;;;;;20.29;54.54;101388.38;5062377;28;20344;-69
2023/05/09 05:46:45;;;;;;;7.30;4.55;;;;;;;20.27;54.60;101377.91;5044528;28;20174;-68
2023/05/09 05:49:10;;;;;;;6.90;4.65;;;;;;;20.27;54.49;101380.56;5045240;28;20041;-70
2023/05/09 05:51:35;;;;;;;6.43;4.75;;;;;;;20.26;54.66;101372.75;5043269;28;20025;-68
2023/05/09 05:54:01;;;;;;;6.25;4.20;;;;;;;20.26;54.90;101373.56;5048597;28;20039;-67
2023/05/09 05:56:26;;;;;;;7.45;4.35;;;;;;;20.31;54.59;101373.19;5054214;28;20070;-72
2023/05/09 05:58:51;;;;;;;6.40;4.60;;;;;;;20.31;54.92;101373.19;5047779;28;20059;-67
2023/05/09 06:01:16;;;;;;;6.60;4.63;;;;;;;20.33;54.76;101371.28;5043609;28;20029;-69
2023/05/09 06:03:42;;;;;;;6.85;4.70;;;;;;;20.39;54.76;101362.00;5043109;28;20285;-69
2023/05/09 06:06:07;;;;;;;6.87;4.57;;;;;;;20.43;54.81;101361.59;5051912;28;20119;-67
2023/05/09 06:08:32;;;;;;;9.57;5.30;;;;;;;20.42;55.15;101359.09;5045464;28;20313;-69
2023/05/09 06:10:59;;;;;;;6.93;4.87;;;;;;;20.46;54.94;101357.88;5043271;28;20036;-69
2023/05/09 06:13:24;;;;;;;7.80;4.82;;;;;;;20.46;55.24;101355.22;5048892;28;20286;-69
2023/05/09 06:15:50;;;;;;;7.10;4.70;;;;;;;20.50;54.92;101358.47;5048308;28;20514;-70
2023/05/09 06:18:15;;;;;;;7.55;4.32;;;;;;;20.48;54.89;101354.13;5061550;28;20263;-69
2023/05/09 06:20:40;;;;;;;8.02;5.18;;;;;;;20.46;55.23;101342.81;5058471;28;20373;-69
2023/05/09 06:23:05;;;;;;;6.65;4.35;;;;;;;20.46;55.22;101344.66;5062661;28;20043;-68
2023/05/09 06:25:31;;;;;;;6.37;4.60;;;;;;;20.47;54.96;101339.22;5036886;28;20039;-69
2023/05/09 06:27:56;;;;;;;8.02;4.80;;;;;;;20.51;55.19;101347.75;5053240;28;20292;-69
2023/05/09 06:30:21;;;;;;;7.70;4.30;;;;;;;20.48;55.35;101338.22;5047371;28;20132;-69
2023/05/09 06:32:47;;;;;;;8.50;4.85;;;;;;;20.50;55.16;101346.03;5045004;28;20107;-69
2023/05/09 06:35:12;;;;;;;6.03;4.40;;;;;;;20.49;55.20;101341.75;5048787;28;20028;-67
2023/05/09 06:37:37;;;;;;;6.75;4.75;;;;;;;20.52;55.45;101336.19;5051238;28;20316;-70
2023/05/09 06:40:03;;;;;;;9.50;4.43;;;;;;;20.50;55.60;101335.47;5032923;28;20067;-70
2023/05/09 06:42:28;;;;;;;8.30;4.25;;;;;;;20.48;55.57;101337.41;5055576;28;20394;-69
2023/05/09 06:44:54;;;;;;;6.57;4.35;;;;;;;20.46;55.71;101332.22;5047229;28;20123;-69
2023/05/09 06:47:19;;;;;;;6.68;4.50;;;;;;;20.47;55.90;101333.94;5056660;28;20116;-68
2023/05/09 06:49:45;;;;;;;8.65;4.60;;;;;;;20.52;55.95;101330.03;5053159;28;20123;-70
2023/05/09 06:52:11;;;;;;;7.00;4.20;;;;;;;20.52;55.85;101325.59;5054481;28;20036;-67
2023/05/09 06:54:37;;;;;;;7.13;4.60;;;;;;;20.50;55.75;101319.56;5053255;28;20029;-68
2023/05/09 06:57:03;;;;;;;5.90;4.50;;;;;;;20.53;55.85;101321.13;5054802;28;20090;-68
2023/05/09 06:59:28;;;;;;;6.53;4.03;;;;;;;20.50;55.74;101311.63;5053780;28;20052;-68
2023/05/09 07:01:54;;;;;;;7.90;4.30;;;;;;;20.52;55.74;101314.16;5050552;28;20555;-67
2023/05/09 07:04:19;;;;;;;6.18;4.40;;;;;;;20.51;55.94;101318.63;5049980;28;20298;-69
2023/05/09 07:06:45;;;;;;;6.78;4.40;;;;;;;20.51;55.73;101310.66;5056721;28;20172;-69
2023/05/09 07:09:10;;;;;;;8.00;4.18;;;;;;;20.55;55.63;101319.19;5052796;28;20847;-73
2023/05/09 07:11:36;;;;;;;7.72;4.22;;;;;;;20.64;55.53;101313.97;5055634;28;20475;-68
2023/05/09 07:14:02;;;;;;;6.10;4.05;;;;;;;20.68;55.25;101317.22;5051588;28;20627;-68
2023/05/09 07:16:28;;;;;;;6.03;4.18;;;;;;;20.73;55.16;101312.38;5048723;28;20035;-68
2023/05/09 07:18:54;;;;;;;8.95;5.45;;;;;;;20.75;54.98;101312.25;5049581;28;20037;-67
2023/05/09 07:21:19;;;;;;;7.57;4.65;;;;;;;20.73;54.77;101300.91;5034929;28;20031;-67
2023/05/09 07:23:44;;;;;;;6.95;4.15;;;;;;;20.73;54.90;101300.91;5043526;28;20059;-69
2023/05/09 07:26:10;;;;;;;9.15;4.07;;;;;;;20.74;54.96;101302.63;5055849;28;20108;-67
2023/05/09 07:28:35;;;;;;;5.93;3.80;;;;;;;20.71;54.82;101295.78;5055101;28;20042;-67
2023/05/09 07:31:00;;;;;;;6.90;4.07;;;;;;;20.73;54.63;101301.78;5048362;28;20036;-68
2023/05/09 07:33:26;;;;;;;6.57;3.75;;;;;;;20.72;54.75;101304.56;5045878;28;20460;-67
2023/05/09 07:35:51;;;;;;;4.95;3.63;;;;;;;20.69;54.52;101303.00;5047161;28;20086;-68
2023/05/09 07:38:17;;;;;;;7.15;3.80;;;;;;;20.70;54.74;101303.88;5052847;28;20456;-67
2023/05/09 07:40:42;;;;;;;5.63;4.05;;;;;;;20.67;54.59;101297.00;5057547;28;20025;-67
2023/05/09 07:43:07;;;;;;;7.03;3.70;;;;;;;20.69;54.46;101302.16;5051622;28;20123;-68
2023/05/09 07:45:33;;;;;;;7.32;4.00;;;;;;;20.68;54.71;101297.84;5047579;28;20254;-67
2023/05/09 07:47:59;;;;;;;6.07;3.50;;;;;;;20.63;54.93;101295.53;5049828;28;20036;-68
2023/05/09 07:50:24;;;;;;;5.38;3.50;;;;;;;20.61;54.74;101293.03;5054081;28;20170;-67
2023/05/09 07:52:50;;;;;;;7.43;3.90;;;;;;;20.63;54.91;101292.91;5052384;28;20048;-68
2023/05/09 07:55:16;;;;;;;5.55;3.75;;;;;;;20.62;54.90;101292.06;5060643;28;20032;-68
2023/05/09 07:57:41;;;;;;;6.90;3.88;;;;;;;20.62;54.85;101291.22;5057016;28;20033;-68
2023/05/09 08:00:07;;;;;;;5.83;3.93;;;;;;;20.61;54.97;101282.44;5051125;28;20035;-67
2023/05/09 08:02:33;;;;;;;5.97;3.85;;;;;;;20.61;54.85;101271.00;5045845;28;20700;-68
2023/05/09 08:04:58;;;;;;;5.72;3.42;;;;;;;20.60;54.93;101264.88;5059777;28;20528;-67
2023/05/09 08:07:23;;;;;;;6.17;3.77;;;;;;;20.59;54.88;101271.13;5032975;28;20037;-68
2023/05/09 08:09:48;;;;;;;6.03;4.18;;;;;;;20.58;55.28;101261.50;5050280;28;20265;-68
2023/05/09 08:12:14;;;;;;;5.77;3.63;;;;;;;20.60;55.11;101266.66;5044139;28;20175;-69
2023/05/09 08:14:39;;;;;;;5.72;3.70;;;;;;;20.58;54.95;101256.22;5059204;28;20278;-70
2023/05/09 08:17:04;;;;;;;6.40;3.70;;;;;;;20.58;54.93;101250.91;5060967;28;20043;-68
2023/05/09 08:19:30;;;;;;;6.73;3.70;;;;;;;20.58;55.43;101252.72;5046391;28;20130;-68
2023/05/09 08:21:55;;;;;;;6.20;3.17;;;;;;;20.56;54.97;101244.09;5041096;28;20269;-68
2023/05/09 08:24:20;;;;;;;5.65;3.58;;;;;;;20.58;55.03;101245.63;5040479;28;20262;-69
2023/05/09 08:26:46;;;;;;;5.70;3.40;;;;;;;20.57;54.79;101243.97;5041048;28;20033;-67
2023/05/09 08:29:11;;;;;;;6.53;3.50;;;;;;;20.57;55.14;101236.03;5043130;28;20040;-68
2023/05/09 08:31:36;;;;;;;4.65;3.17;;;;;;;20.56;54.97;101233.50;5045426;28;20469;-69
2023/05/09 08:34:02;;;;;;;6.75;3.40;;;;;;;20.57;54.96;101235.16;5053350;28;20032;-67
2023/05/09 08:36:27;;;;;;;6.28;3.60;;;;;;;20.55;55.03;101224.69;5044981;28;20052;-68
2023/05/09 08:38:52;;;;;;;6.03;3.20;;;;;;;20.55;55.09;101229.16;5049143;28;20052;-69
2023/05/09 08:41:25;;;;;;;5.40;3.40;;;;;;;20.55;55.12;101229.16;5045034;28;20086;-68
2023/05/09 08:43:51;;;;;;;6.60;3.30;;;;;;;20.53;54.95;101218.69;5044470;28;20274;-68
2023/05/09 08:46:21;;;;;;;5.22;3.30;;;;;;;20.53;55.12;101208.13;5044773;28;20468;-68
2023/05/09 08:48:46;;;;;;;5.53;3.58;;;;;;;20.55;55.09;101224.69;5044939;28;20491;-68
2023/05/09 08:51:14;;;;;;;4.78;3.20;;;;;;;20.52;55.13;101222.34;5026716;28;20032;-68
2023/05/09 08:53:42;;;;;;;5.13;3.13;;;;;;;20.54;55.24;101220.41;5044529;28;20114;-68
2023/05/09 08:56:08;;;;;;;7.32;3.90;;;;;;;20.55;55.12;101221.22;5044376;28;20419;-68
2023/05/09 08:58:33;;;;;;;5.70;3.30;;;;;;;20.53;55.21;101210.75;5050056;28;20038;-67
2023/05/09 09:01:03;;;;;;;4.75;3.30;;;;;;;20.53;55.16;101215.22;5064458;28;20243;-67
2023/05/09 09:03:29;;;;;;;5.90;3.20;;;;;;;20.53;55.45;101215.22;5053140;28;20472;-67
2023/05/09 09:05:55;;;;;;;5.20;3.63;;;;;;;20.53;55.13;101207.28;5044394;28;20033;-68
2023/05/09 09:08:21;;;;;;;7.25;3.13;;;;;;;20.51;55.36;101211.88;5046052;28;20033;-67
2023/05/09 09:10:47;;;;;;;4.95;3.50;;;;;;;20.53;55.27;101209.94;5064163;28;20032;-67
2023/05/09 09:13:15;;;;;;;5.43;3.35;;;;;;;20.51;54.98;101199.47;5027223;28;20095;-70
2023/05/09 09:15:43;;;;;;;4.65;2.97;;;;;;;20.49;55.21;101201.41;5026172;28;20136;-68
2023/05/09 09:18:15;;;;;;;5.68;2.95;;;;;;;20.50;55.42;101203.06;5047434;28;20040;-68
2023/05/09 09:20:50;;;;;;;5.18;3.03;;;;;;;20.48;55.46;101187.31;5045423;28;20060;-68
2023/05/09 09:23:23;;;;;;;4.72;2.97;;;;;;;20.50;55.28;101203.06;5055154;28;20036;-69
2023/05/09 09:25:48;;;;;;;6.07;3.00;;;;;;;20.51;55.48;101196.81;5060462;28;20927;-67
2023/05/09 09:28:14;;;;;;;6.38;2.80;;;;;;;20.52;55.55;101195.88;5056507;28;20475;-68
2023/05/09 09:30:57;;;;;;;5.15;2.80;;;;;;;20.49;55.64;101188.19;5044168;28;20047;-67
2023/05/09 09:33:25;;;;;;;5.22;3.20;;;;;;;20.52;55.48;101187.91;5053364;28;20032;-68
2023/05/09 09:35:51;;;;;;;4.88;2.97;;;;;;;20.52;55.75;101184.41;5063511;28;20438;-66
2023/05/09 09:38:18;;;;;;;5.65;2.80;;;;;;;20.53;55.64;101184.28;5063797;28;20447;-69
2023/05/09 09:40:57;;;;;;;5.30;2.90;;;;;;;20.49;55.50;101177.59;5056531;28;20029;-68
2023/05/09 09:43:27;;;;;;;4.30;2.70;;;;;;;20.50;55.76;101179.25;5054252;28;20024;-67
2023/05/09 09:45:52;;;;;;;6.32;2.83;;;;;;;20.55;55.64;101178.84;5047126;28;20037;-67
2023/05/09 09:48:22;;;;;;;4.53;2.58;;;;;;;20.50;55.59;101171.31;5057015;28;20048;-68
2023/05/09 09:50:47;;;;;;;5.53;3.03;;;;;;;20.52;55.93;101171.19;5061348;28;20067;-68
2023/05/09 09:53:13;;;;;;;4.20;2.73;;;;;;;20.54;55.63;101172.72;5062768;28;20145;-69
2023/05/09 09:55:48;;;;;;;4.57;2.70;;;;;;;20.52;55.86;101171.19;5048535;28;20273;-68
2023/05/09 09:58:20;;;;;;;4.68;2.70;;;;;;;20.54;55.79;101169.25;5063245;28;20265;-69
2023/05/09 10:00:46;;;;;;;4.70;2.75;;;;;;;20.57;55.89;101169.81;5043734;28;20036;-69
2023/05/09 10:03:16;;;;;;;4.20;2.47;;;;;;;20.56;55.60;101169.94;5043059;28;20025;-70
2023/05/09 10:05:41;;;;;;;5.53;3.08;;;;;;;20.56;55.57;101156.72;5043076;28;20025;-70
2023/05/09 10:08:08;;;;;;;4.80;2.47;;;;;;;20.55;55.85;101158.50;5043144;28;20036;-70
2023/05/09 10:10:35;;;;;;;4.72;2.97;;;;;;;20.55;55.88;101157.69;5043278;28;20082;-68
2023/05/09 10:13:03;;;;;;;4.65;2.70;;;;;;;20.56;55.86;101156.72;5043155;28;20089;-68
2023/05/09 10:15:30;;;;;;;4.68;2.80;;;;;;;20.54;55.67;101156.03;5046804;28;20944;-69
2023/05/09 10:17:57;;;;;;;4.65;2.55;;;;;;;20.53;55.74;101156.97;5043302;28;20025;-70
2023/05/09 10:20:24;;;;;;;7.70;2.78;;;;;;;20.48;56.23;101147.63;5056388;28;20032;-70
2023/05/09 10:22:53;;;;;;;4.72;2.50;;;;;;;20.45;56.17;101150.53;5062818;28;20024;-70
2023/05/09 10:25:20;;;;;;;4.22;2.42;;;;;;;20.41;56.11;101151.78;5061280;28;20107;-71
2023/05/09 10:27:47;;;;;;;5.38;2.40;;;;;;;20.44;56.14;101150.66;5049980;28;20028;-70
2023/05/09 10:30:34;;;;;;;5.88;2.40;;;;;;;20.44;56.29;101140.06;5053107;28;20102;-68
2023/05/09 10:33:07;;;;;;;6.45;3.08;;;;;;;20.46;56.62;101143.44;5043956;28;20446;-73
2023/05/09 10:35:46;;;;;;;8.77;2.47;;;;;;;20.37;56.65;101123.88;5027999;28;20028;-74
2023/05/09 10:38:11;;;;;;;4.97;2.50;;;;;;;20.43;57.04;101135.75;5048004;28;20033;-72
2023/05/09 10:40:39;;;;;;;6.80;2.80;;;;;;;20.39;57.16;101135.16;5052144;28;20039;-72
2023/05/09 10:43:06;;;;;;;6.28;2.78;;;;;;;20.32;56.93;101119.97;5045678;28;20040;-70
2023/05/09 10:45:32;;;;;;;4.82;2.42;;;;;;;20.34;57.45;101128.63;5045470;28;20527;-69
2023/05/09 10:47:58;;;;;;;6.47;2.60;;;;;;;20.35;57.54;101122.34;5049431;28;20569;-72
2023/05/09 10:50:24;;;;;;;5.18;2.58;;;;;;;20.35;57.54;101115.25;5057434;28;20174;-69
2023/05/09 10:53:02;;;;;;;4.68;2.40;;;;;;;20.38;57.23;101119.44;5035802;28;21025;-72
2023/05/09 10:55:46;;;;;;;5.07;2.60;;;;;;;20.35;57.36;101112.59;5041186;28;20033;-68
2023/05/09 10:58:25;;;;;;;4.60;2.60;;;;;;;20.37;57.45;101117.75;5047782;28;20203;-69
2023/05/09 11:00:53;;;;;;;4.40;2.40;;;;;;;20.36;57.46;101110.78;5042256;28;20086;-68
2023/05/09 11:03:19;;;;;;;4.35;2.47;;;;;;;20.37;57.45;101115.13;5042877;28;20047;-71
2023/05/09 11:05:51;;;;;;;6.43;2.60;;;;;;;20.40;57.61;101106.91;5037085;28;20041;-71
2023/05/09 11:08:24;;;;;;;5.93;2.72;;;;;;;20.39;57.37;101106.06;5021820;28;20040;-72
2023/05/09 11:10:50;;;;;;;4.28;2.60;;;;;;;20.41;57.14;101097.97;5022177;28;20239;-71
2023/05/09 11:13:24;;;;;;;6.82;2.40;;;;;;;20.40;57.14;101096.31;5038737;28;20053;-69
2023/05/09 11:16:00;;;;;;;5.03;2.40;;;;;;;20.38;57.43;101091.16;5039983;28;20055;-67
2023/05/09 11:18:27;;;;;;;8.55;2.50;;;;;;;20.40;57.53;101091.03;5042023;28;20048;-65
2023/05/09 11:20:54;;;;;;;5.15;2.42;;;;;;;20.40;57.53;101083.91;5040192;28;20070;-69
2023/05/09 11:23:25;;;;;;;6.20;2.53;;;;;;;20.40;57.50;101088.38;5028753;28;20471;-67